South Bloomingville, Ohio
Current Conditions -  °F | °C
As of 6:14 AM on Monday 22 Dec 2014 (Local Time) from KRZT Reporting Station
Haze Haze  
Wind Chill: 27°   Ceiling: 5000
Heat Index: 27°   Visibility: 5mi
Dew Point: 27°   Wind: 0mph
Humidity: 100%   Direction: NA
Pressure: 30.06"   Gusts: NA
Location:  39.42°N, 82.6°W
Report Text: KRZT 221114Z AUTO 00000KT 5SM BR OVC050 M03/M03 A3006 RMK AO2
Loading
Personal Weather Stations






























Interactive Weather Map New forecast layout! Learn more

10-Day Weather Forecast

Advertisements
Track Severe Weather on mobile